Coffee Creek, Montana
Current Conditions -  °F | °C
As of 10:54 PM on Wednesday 28 Jan 2015 (Local Time) from KLWT Reporting Station
Clear Clear  
Wind Chill: 19°   Ceiling: Unl
Heat Index: 27°   Visibility: 9mi
Dew Point: 24°   Wind: 8mph
Humidity: 89%   Direction: 140°SE
Pressure: 30.38"   Gusts: NA
Location:  47.34°N, 110.08°W
Report Text: KLWT 290554Z AUTO 14007KT 9SM CLR M03/M04 A3038 RMK AO2 SLP319 T10281044 10028 21033 51005
Loading
Personal Weather Stations






























Interactive Weather Map New forecast layout! Learn more

10-Day Weather Forecast

Advertisements
Track Severe Weather on mobile